createdAt,value
2023-05-15T00:01:19.560Z,8.00
2023-05-15T00:03:46.177Z,7.95
2023-05-15T00:06:12.782Z,7.94
2023-05-15T00:08:39.562Z,7.93
2023-05-15T00:11:06.087Z,7.87
2023-05-15T00:13:32.637Z,7.82
2023-05-15T00:15:59.521Z,7.76
2023-05-15T00:18:26.082Z,7.73
2023-05-15T00:20:53.477Z,7.72
2023-05-15T00:23:20.008Z,7.67
2023-05-15T00:25:46.535Z,7.64
2023-05-15T00:28:13.061Z,7.66
2023-05-15T00:30:39.555Z,7.70
2023-05-15T00:33:06.069Z,7.72
2023-05-15T00:35:32.624Z,7.72
2023-05-15T00:37:59.215Z,7.70
2023-05-15T00:40:26.780Z,7.72
2023-05-15T00:42:53.499Z,7.74
2023-05-15T00:45:22.336Z,7.73
2023-05-15T00:47:50.041Z,7.79
2023-05-15T00:50:17.019Z,7.78
2023-05-15T00:52:43.700Z,7.72
2023-05-15T00:55:10.285Z,7.61
2023-05-15T00:57:38.252Z,7.52
2023-05-15T01:00:10.512Z,7.47
2023-05-15T01:02:37.706Z,7.36
2023-05-15T01:05:05.273Z,7.27
2023-05-15T01:07:35.596Z,7.23
2023-05-15T01:10:04.369Z,7.21
2023-05-15T01:12:32.683Z,7.24
2023-05-15T01:14:59.356Z,7.22
2023-05-15T01:17:26.027Z,7.23
2023-05-15T01:19:52.910Z,7.22
2023-05-15T01:22:20.091Z,7.22
2023-05-15T01:24:59.647Z,7.23
2023-05-15T01:27:32.467Z,7.19
2023-05-15T01:30:18.132Z,7.22
2023-05-15T01:32:52.894Z,7.24
2023-05-15T01:35:36.101Z,7.26
2023-05-15T01:38:08.645Z,7.27
2023-05-15T01:40:35.781Z,7.23
2023-05-15T01:43:09.890Z,7.28
2023-05-15T01:45:37.400Z,7.28
2023-05-15T01:48:08.431Z,7.23
2023-05-15T01:50:38.186Z,7.25
2023-05-15T01:53:07.732Z,7.31
2023-05-15T01:55:35.071Z,7.34
2023-05-15T01:58:02.943Z,7.35
2023-05-15T02:00:30.847Z,7.35
2023-05-15T02:02:59.023Z,7.35
2023-05-15T02:05:26.773Z,7.33
2023-05-15T02:07:54.362Z,7.24
2023-05-15T02:10:22.226Z,7.18
2023-05-15T02:12:50.300Z,7.14
2023-05-15T02:15:17.416Z,7.11
2023-05-15T02:17:43.978Z,7.07
2023-05-15T02:20:10.649Z,7.02
2023-05-15T02:22:37.154Z,6.96
2023-05-15T02:25:04.068Z,6.93
2023-05-15T02:27:46.751Z,6.92
2023-05-15T02:30:55.897Z,6.89
2023-05-15T02:33:36.058Z,6.91
2023-05-15T02:36:06.768Z,6.85
2023-05-15T02:38:40.939Z,6.79
2023-05-15T02:41:07.938Z,6.79
2023-05-15T02:43:36.614Z,6.79
2023-05-15T02:46:05.476Z,6.83
2023-05-15T02:48:32.501Z,6.80
2023-05-15T02:50:59.393Z,6.84
2023-05-15T02:53:25.934Z,6.85
2023-05-15T02:55:52.479Z,6.87
2023-05-15T02:58:19.036Z,6.92
2023-05-15T03:00:45.663Z,7.02
2023-05-15T03:03:12.156Z,7.05
2023-05-15T03:05:38.873Z,7.09
2023-05-15T03:08:05.499Z,7.13
2023-05-15T03:10:32.046Z,7.14
2023-05-15T03:12:58.697Z,7.12
2023-05-15T03:15:25.935Z,7.17
2023-05-15T03:17:52.739Z,7.22
2023-05-15T03:20:19.512Z,7.30
2023-05-15T03:22:46.200Z,7.28
2023-05-15T03:25:13.145Z,7.23
2023-05-15T03:27:39.689Z,7.17
2023-05-15T03:30:07.150Z,7.20
2023-05-15T03:32:33.921Z,7.33
2023-05-15T03:35:00.927Z,7.46
2023-05-15T03:37:27.410Z,7.63
2023-05-15T03:39:53.921Z,7.80
2023-05-15T03:42:23.500Z,7.94
2023-05-15T03:44:50.900Z,8.09
2023-05-15T03:47:17.961Z,8.22
2023-05-15T03:49:46.363Z,8.32
2023-05-15T03:52:13.085Z,8.46
2023-05-15T03:54:40.122Z,8.54
2023-05-15T03:57:06.806Z,8.64
2023-05-15T03:59:33.646Z,8.77
2023-05-15T04:02:05.095Z,8.85
2023-05-15T04:04:32.226Z,8.96
2023-05-15T04:06:59.522Z,9.05
2023-05-15T04:09:26.095Z,9.16
2023-05-15T04:11:52.585Z,9.27
2023-05-15T04:14:19.106Z,9.38
2023-05-15T04:16:45.737Z,9.49
2023-05-15T04:19:12.379Z,9.56
2023-05-15T04:21:39.020Z,9.68
2023-05-15T04:24:07.289Z,9.74
2023-05-15T04:26:34.213Z,9.80
2023-05-15T04:29:04.566Z,9.82
2023-05-15T04:31:31.768Z,9.86
2023-05-15T04:33:58.663Z,9.95
2023-05-15T04:36:25.625Z,10.03
2023-05-15T04:38:52.137Z,10.10
2023-05-15T04:41:18.791Z,10.14
2023-05-15T04:43:45.994Z,10.21
2023-05-15T04:46:12.731Z,10.26
2023-05-15T04:48:39.490Z,10.35
2023-05-15T04:51:06.128Z,10.41
2023-05-15T04:53:32.623Z,10.46
2023-05-15T04:55:59.149Z,10.50
2023-05-15T04:58:25.699Z,10.54
2023-05-15T05:00:52.430Z,10.62
2023-05-15T05:03:19.203Z,10.68
2023-05-15T05:05:46.999Z,10.76
2023-05-15T05:08:13.610Z,10.84
2023-05-15T05:10:40.260Z,10.87
2023-05-15T05:13:06.813Z,10.89
2023-05-15T05:15:33.401Z,10.93
2023-05-15T05:17:59.925Z,10.96
2023-05-15T05:20:26.639Z,11.03
2023-05-15T05:22:53.225Z,11.10
2023-05-15T05:25:19.994Z,11.15
2023-05-15T05:27:46.467Z,11.17
2023-05-15T05:30:13.064Z,11.23
2023-05-15T05:32:39.614Z,11.31
2023-05-15T05:35:06.580Z,11.35
2023-05-15T05:37:33.308Z,11.39
2023-05-15T05:39:59.828Z,11.43
2023-05-15T05:42:26.961Z,11.45
2023-05-15T05:44:53.670Z,11.44
2023-05-15T05:47:20.425Z,11.50
2023-05-15T05:49:48.362Z,11.54
2023-05-15T05:52:16.112Z,11.55
2023-05-15T05:54:43.183Z,11.59
2023-05-15T05:57:10.140Z,11.63
2023-05-15T05:59:37.498Z,11.63
2023-05-15T06:02:04.830Z,11.66
2023-05-15T06:04:33.593Z,11.63
2023-05-15T06:07:00.124Z,11.64
2023-05-15T06:09:26.747Z,11.65
2023-05-15T06:11:53.289Z,11.78
2023-05-15T06:14:21.218Z,11.82
2023-05-15T06:16:47.914Z,11.83
2023-05-15T06:19:14.599Z,11.86
2023-05-15T06:21:41.155Z,11.92
2023-05-15T06:24:07.757Z,11.97
2023-05-15T06:26:34.399Z,12.03
2023-05-15T06:29:01.065Z,12.09
2023-05-15T06:31:27.611Z,12.15
2023-05-15T06:33:54.175Z,12.20
2023-05-15T06:36:20.889Z,12.25
2023-05-15T06:38:47.547Z,12.25
2023-05-15T06:41:14.023Z,12.32
2023-05-15T06:43:40.558Z,12.34
2023-05-15T06:46:07.122Z,12.26
2023-05-15T06:48:33.718Z,12.32
2023-05-15T06:51:00.322Z,12.36
2023-05-15T06:53:26.838Z,12.44
2023-05-15T06:55:53.546Z,12.50
2023-05-15T06:58:20.119Z,12.55
2023-05-15T07:00:46.710Z,12.63
2023-05-15T07:03:14.655Z,12.68
2023-05-15T07:05:41.117Z,12.81
2023-05-15T07:08:07.766Z,12.83
2023-05-15T07:10:34.250Z,12.92
2023-05-15T07:13:00.781Z,12.91
2023-05-15T07:15:27.428Z,12.93
2023-05-15T07:17:54.062Z,12.90
2023-05-15T07:20:21.086Z,12.89
2023-05-15T07:22:55.809Z,12.81
2023-05-15T07:25:23.732Z,12.77
2023-05-15T07:27:50.621Z,12.82
2023-05-15T07:30:17.377Z,12.81
2023-05-15T07:32:44.012Z,12.81
2023-05-15T07:35:14.124Z,12.82
2023-05-15T07:37:41.093Z,12.89
2023-05-15T07:40:08.357Z,12.91
2023-05-15T07:42:34.948Z,12.92
2023-05-15T07:45:01.545Z,12.98
2023-05-15T07:47:28.047Z,13.01
2023-05-15T07:49:54.527Z,13.05
2023-05-15T07:52:21.039Z,13.11
2023-05-15T07:54:47.593Z,13.13
2023-05-15T07:57:14.192Z,13.11
2023-05-15T07:59:40.779Z,13.20
2023-05-15T08:02:07.420Z,13.49
2023-05-15T08:04:34.169Z,13.87
2023-05-15T08:07:01.037Z,14.06
2023-05-15T08:09:27.711Z,14.25
2023-05-15T08:12:17.623Z,14.30
2023-05-15T08:14:44.250Z,14.29
2023-05-15T08:17:10.799Z,14.15
2023-05-15T08:19:37.317Z,13.94
2023-05-15T08:22:03.955Z,13.79
2023-05-15T08:24:30.967Z,13.68
2023-05-15T08:26:57.642Z,13.57
2023-05-15T08:29:24.209Z,13.41
2023-05-15T08:31:50.886Z,13.32
2023-05-15T08:34:17.468Z,13.25
2023-05-15T08:36:44.900Z,13.17
2023-05-15T08:39:11.473Z,13.22
2023-05-15T08:41:47.804Z,13.20
2023-05-15T08:44:14.769Z,13.17
2023-05-15T08:46:41.512Z,13.14
2023-05-15T08:49:33.926Z,13.08
2023-05-15T08:52:00.742Z,12.99
2023-05-15T08:54:27.352Z,12.86
2023-05-15T08:56:54.099Z,12.83
2023-05-15T08:59:20.992Z,12.84
2023-05-15T09:01:47.528Z,12.80
2023-05-15T09:04:14.389Z,12.85
2023-05-15T09:06:42.022Z,12.85
2023-05-15T09:09:09.494Z,12.81
2023-05-15T09:11:37.910Z,12.75
2023-05-15T09:14:04.923Z,12.69
2023-05-15T09:16:31.459Z,12.60
2023-05-15T09:19:00.031Z,12.57
2023-05-15T09:21:29.396Z,12.64
2023-05-15T09:24:16.031Z,12.67
2023-05-15T09:26:43.474Z,12.71
2023-05-15T09:29:10.337Z,12.69
2023-05-15T09:31:37.745Z,12.72
2023-05-15T09:34:09.451Z,12.70
2023-05-15T09:36:36.614Z,12.72
2023-05-15T09:39:03.445Z,12.73
2023-05-15T09:41:29.983Z,12.76
2023-05-15T09:43:57.050Z,12.70
2023-05-15T09:46:24.444Z,12.68
2023-05-15T09:48:55.539Z,12.73
2023-05-15T09:51:22.399Z,12.76
2023-05-15T09:53:51.601Z,12.79
2023-05-15T09:56:18.526Z,12.92
2023-05-15T09:58:59.175Z,13.04
2023-05-15T10:01:27.494Z,13.12
2023-05-15T10:04:00.761Z,13.14
2023-05-15T10:06:27.628Z,13.16
2023-05-15T10:08:54.789Z,13.10
2023-05-15T10:11:23.950Z,13.03
2023-05-15T10:13:51.019Z,13.02
2023-05-15T10:16:20.253Z,12.90
2023-05-15T10:18:48.531Z,12.81
2023-05-15T10:21:18.465Z,12.71
2023-05-15T10:23:46.730Z,12.60
2023-05-15T10:26:24.556Z,12.53
2023-05-15T10:28:52.709Z,12.47
2023-05-15T10:31:20.627Z,12.48
2023-05-15T10:33:47.720Z,12.50
2023-05-15T10:36:15.802Z,12.43
2023-05-15T10:38:43.219Z,12.43
2023-05-15T10:41:17.720Z,12.40
2023-05-15T10:43:45.871Z,12.31
2023-05-15T10:46:13.899Z,12.27
2023-05-15T10:48:40.836Z,12.24
2023-05-15T10:51:23.989Z,12.17
2023-05-15T10:53:51.984Z,12.13
2023-05-15T10:56:18.714Z,12.07
2023-05-15T10:58:49.868Z,12.02
2023-05-15T11:01:32.070Z,11.91
2023-05-15T11:04:16.135Z,11.80
2023-05-15T11:06:47.871Z,11.73
2023-05-15T11:09:27.648Z,11.74
2023-05-15T11:11:57.139Z,11.71
2023-05-15T11:14:25.930Z,11.62
2023-05-15T11:16:55.848Z,11.50
2023-05-15T11:19:28.902Z,11.49
2023-05-15T11:22:02.884Z,11.42
2023-05-15T11:24:31.583Z,11.35
2023-05-15T11:27:00.553Z,11.21
2023-05-15T11:29:27.277Z,11.14
2023-05-15T11:31:53.878Z,11.17
2023-05-15T11:34:34.134Z,11.16
2023-05-15T11:37:01.325Z,11.06
2023-05-15T11:39:28.850Z,11.11
2023-05-15T11:41:56.840Z,11.13
2023-05-15T11:44:24.777Z,11.17
2023-05-15T11:46:51.554Z,11.21
2023-05-15T11:49:19.731Z,11.15
2023-05-15T11:51:48.715Z,11.08
2023-05-15T11:54:15.429Z,11.08
2023-05-15T11:56:44.552Z,11.15
2023-05-15T11:59:17.187Z,11.15
2023-05-15T12:01:48.441Z,11.21
2023-05-15T12:04:17.090Z,11.18
2023-05-15T12:06:45.052Z,11.12
2023-05-15T12:09:16.830Z,11.11
2023-05-15T12:11:54.171Z,11.06
2023-05-15T12:14:30.611Z,11.21
2023-05-15T12:17:08.194Z,11.11
2023-05-15T12:19:36.264Z,11.01
2023-05-15T12:22:06.142Z,10.89
2023-05-15T12:24:32.885Z,10.79
2023-05-15T12:26:59.902Z,10.78
2023-05-15T12:29:27.193Z,10.73
2023-05-15T12:31:54.348Z,10.64
2023-05-15T12:34:21.787Z,10.68
2023-05-15T12:36:48.395Z,10.56
2023-05-15T12:39:15.066Z,10.57
2023-05-15T12:41:41.764Z,10.54
2023-05-15T12:44:17.288Z,10.65
2023-05-15T12:46:44.153Z,10.65
2023-05-15T12:49:11.640Z,10.69
2023-05-15T12:51:44.482Z,10.71
2023-05-15T12:54:19.166Z,10.78
2023-05-15T12:56:46.899Z,10.83
2023-05-15T12:59:13.854Z,10.99
2023-05-15T13:01:44.759Z,11.10
2023-05-15T13:04:11.742Z,11.13
2023-05-15T13:06:46.231Z,11.10
2023-05-15T13:09:14.190Z,11.24
2023-05-15T13:11:45.044Z,11.36
2023-05-15T13:14:17.623Z,11.49
2023-05-15T13:16:46.788Z,11.66
2023-05-15T13:19:14.101Z,12.02
2023-05-15T13:21:40.956Z,12.07
2023-05-15T13:24:09.970Z,12.06
2023-05-15T13:26:36.721Z,12.09
2023-05-15T13:29:03.406Z,12.18
2023-05-15T13:31:30.045Z,12.18
2023-05-15T13:33:56.808Z,11.95
2023-05-15T13:36:23.502Z,11.92
2023-05-15T13:38:50.353Z,11.96
2023-05-15T13:41:16.872Z,11.85
2023-05-15T13:43:43.454Z,11.80
2023-05-15T13:46:09.989Z,11.79
2023-05-15T13:48:36.440Z,11.74
2023-05-15T13:51:03.435Z,11.69
2023-05-15T13:53:29.967Z,11.50
2023-05-15T13:55:58.862Z,11.55
2023-05-15T13:58:26.879Z,11.65
2023-05-15T14:00:53.445Z,11.76
2023-05-15T14:03:20.113Z,11.78
2023-05-15T14:05:46.707Z,11.92
2023-05-15T14:08:13.262Z,12.08
2023-05-15T14:10:39.799Z,12.16
2023-05-15T14:13:06.391Z,12.16
2023-05-15T14:15:32.927Z,12.18
2023-05-15T14:17:59.682Z,11.97
2023-05-15T14:20:26.423Z,12.21
2023-05-15T14:22:53.018Z,12.08
2023-05-15T14:25:19.596Z,12.25
2023-05-15T14:27:47.546Z,12.15
2023-05-15T14:30:14.489Z,12.23
2023-05-15T14:32:41.520Z,12.08
2023-05-15T14:35:08.154Z,12.13
2023-05-15T14:37:34.706Z,12.19
2023-05-15T14:40:01.392Z,12.09
2023-05-15T14:42:28.090Z,12.05
2023-05-15T14:44:55.283Z,12.12
2023-05-15T14:47:21.864Z,12.18
2023-05-15T14:49:50.450Z,12.12
2023-05-15T14:52:17.032Z,12.06
2023-05-15T14:54:43.783Z,11.99
2023-05-15T14:57:11.271Z,11.99
2023-05-15T14:59:37.857Z,11.81
2023-05-15T15:02:04.708Z,11.61
2023-05-15T15:04:34.506Z,11.52
2023-05-15T15:07:04.623Z,11.40
2023-05-15T15:09:31.319Z,11.50
2023-05-15T15:11:57.975Z,11.48
2023-05-15T15:14:24.589Z,11.58
2023-05-15T15:16:51.332Z,11.44
2023-05-15T15:19:20.129Z,11.26
2023-05-15T15:21:47.040Z,11.08
2023-05-15T15:24:13.553Z,10.98
2023-05-15T15:26:40.145Z,10.94
2023-05-15T15:29:06.805Z,10.93
2023-05-15T15:31:33.403Z,10.97
2023-05-15T15:34:00.270Z,10.93
2023-05-15T15:36:27.243Z,10.86
2023-05-15T15:38:53.886Z,10.78
2023-05-15T15:41:23.772Z,10.77
2023-05-15T15:43:50.553Z,10.72
2023-05-15T15:46:17.137Z,10.66
2023-05-15T15:48:43.769Z,10.67
2023-05-15T15:51:10.384Z,10.76
2023-05-15T15:53:36.878Z,10.84
2023-05-15T15:56:03.614Z,10.93
2023-05-15T15:58:30.475Z,10.77
2023-05-15T16:00:58.016Z,10.77
2023-05-15T16:03:25.154Z,10.82
2023-05-15T16:05:51.884Z,10.68
2023-05-15T16:08:18.769Z,10.67
2023-05-15T16:10:45.260Z,10.59
2023-05-15T16:13:12.367Z,10.67
2023-05-15T16:15:38.873Z,10.55
2023-05-15T16:18:05.622Z,10.59
2023-05-15T16:20:34.232Z,10.65
2023-05-15T16:23:01.695Z,10.55
2023-05-15T16:25:28.218Z,10.62
2023-05-15T16:27:54.882Z,10.70
2023-05-15T16:30:21.399Z,10.79
2023-05-15T16:32:48.996Z,10.72
2023-05-15T16:35:15.725Z,10.71
2023-05-15T16:37:42.322Z,10.62
2023-05-15T16:40:09.296Z,10.62
2023-05-15T16:42:38.005Z,10.40
2023-05-15T16:45:05.699Z,10.29
2023-05-15T16:47:32.288Z,10.31
2023-05-15T16:49:58.875Z,10.23
2023-05-15T16:52:25.855Z,10.13
2023-05-15T16:54:52.450Z,10.08
2023-05-15T16:57:18.995Z,10.04
2023-05-15T16:59:45.809Z,10.00
2023-05-15T17:02:12.819Z,9.95
2023-05-15T17:04:39.397Z,10.11
2023-05-15T17:07:06.081Z,9.98
2023-05-15T17:09:32.953Z,10.02
2023-05-15T17:12:00.554Z,9.96
2023-05-15T17:14:27.177Z,10.01
2023-05-15T17:16:53.712Z,9.98
2023-05-15T17:19:20.530Z,9.86
2023-05-15T17:21:47.112Z,9.77
2023-05-15T17:24:15.145Z,9.79
2023-05-15T17:26:42.206Z,9.72
2023-05-15T17:29:10.982Z,9.71
2023-05-15T17:31:38.854Z,9.70
2023-05-15T17:34:05.486Z,9.64
2023-05-15T17:36:33.131Z,9.69
2023-05-15T17:39:00.324Z,9.72
2023-05-15T17:41:26.834Z,9.82
2023-05-15T17:43:53.414Z,9.91
2023-05-15T17:46:20.107Z,10.01
2023-05-15T17:48:46.763Z,10.07
2023-05-15T17:51:13.421Z,10.13
2023-05-15T17:53:40.404Z,10.22
2023-05-15T17:56:07.542Z,10.23
2023-05-15T17:58:34.242Z,10.26
2023-05-15T18:01:02.222Z,10.29
2023-05-15T18:03:29.492Z,10.33
2023-05-15T18:05:56.402Z,10.29
2023-05-15T18:08:23.036Z,10.24
2023-05-15T18:10:49.659Z,10.23
2023-05-15T18:13:16.467Z,10.24
2023-05-15T18:15:43.385Z,10.23
2023-05-15T18:18:10.270Z,10.22
2023-05-15T18:20:37.113Z,10.19
2023-05-15T18:23:03.639Z,10.14
2023-05-15T18:25:30.844Z,10.11
2023-05-15T18:27:57.370Z,10.10
2023-05-15T18:30:24.268Z,10.08
2023-05-15T18:32:50.867Z,10.05
2023-05-15T18:35:17.538Z,10.05
2023-05-15T18:37:44.591Z,10.06
2023-05-15T18:40:14.091Z,10.04
2023-05-15T18:42:40.625Z,9.99
2023-05-15T18:45:07.800Z,9.97
2023-05-15T18:47:34.532Z,9.98
2023-05-15T18:50:01.315Z,9.94
2023-05-15T18:52:28.779Z,9.99
2023-05-15T18:54:57.563Z,9.99
2023-05-15T18:57:24.744Z,9.97
2023-05-15T18:59:51.248Z,9.98
2023-05-15T19:02:20.179Z,9.98
2023-05-15T19:04:46.943Z,9.94
2023-05-15T19:07:13.392Z,9.89
2023-05-15T19:09:40.091Z,9.75
2023-05-15T19:12:06.996Z,9.65
2023-05-15T19:14:33.637Z,9.51
2023-05-15T19:17:00.240Z,9.45
2023-05-15T19:19:27.985Z,9.37
2023-05-15T19:21:54.798Z,9.32
2023-05-15T19:24:21.829Z,9.28
2023-05-15T19:26:48.402Z,9.21
2023-05-15T19:29:14.870Z,9.12
2023-05-15T19:31:41.734Z,9.02
2023-05-15T19:34:08.286Z,8.99
2023-05-15T19:36:35.145Z,8.99
2023-05-15T19:39:01.720Z,9.03
2023-05-15T19:41:28.266Z,8.99
2023-05-15T19:43:54.857Z,8.88
2023-05-15T19:46:21.835Z,8.83
2023-05-15T19:48:48.429Z,8.80
2023-05-15T19:51:15.524Z,8.81
2023-05-15T19:53:42.074Z,8.81
2023-05-15T19:56:08.620Z,8.80
2023-05-15T19:58:35.326Z,8.82
2023-05-15T20:01:02.226Z,8.82
2023-05-15T20:03:33.283Z,8.79
2023-05-15T20:06:03.262Z,8.72
2023-05-15T20:08:30.058Z,8.62
2023-05-15T20:10:57.987Z,8.56
2023-05-15T20:13:24.665Z,8.61
2023-05-15T20:15:58.029Z,8.62
2023-05-15T20:18:30.353Z,8.68
2023-05-15T20:20:58.932Z,8.71
2023-05-15T20:23:25.461Z,8.75
2023-05-15T20:25:52.760Z,8.77
2023-05-15T20:28:19.528Z,8.69
2023-05-15T20:30:47.485Z,8.61
2023-05-15T20:33:14.508Z,8.55
2023-05-15T20:35:42.741Z,8.49
2023-05-15T20:38:10.552Z,8.48
2023-05-15T20:40:37.783Z,8.45
2023-05-15T20:43:04.635Z,8.45
2023-05-15T20:45:32.398Z,8.42
2023-05-15T20:47:59.121Z,8.36
2023-05-15T20:50:26.091Z,8.32
2023-05-15T20:52:53.113Z,8.26
2023-05-15T20:55:20.181Z,8.22
2023-05-15T20:57:48.077Z,8.27
2023-05-15T21:00:16.682Z,8.30
2023-05-15T21:02:46.528Z,8.48
2023-05-15T21:05:13.507Z,8.57
2023-05-15T21:07:40.066Z,8.58
2023-05-15T21:10:07.403Z,8.57
2023-05-15T21:12:34.370Z,8.50
2023-05-15T21:15:01.947Z,8.42
2023-05-15T21:17:28.675Z,8.34
2023-05-15T21:19:57.501Z,8.26
2023-05-15T21:22:24.676Z,8.15
2023-05-15T21:24:51.414Z,8.16
2023-05-15T21:27:18.127Z,8.12
2023-05-15T21:29:44.655Z,8.05
2023-05-15T21:32:11.670Z,7.98
2023-05-15T21:34:39.066Z,7.87
2023-05-15T21:37:05.629Z,7.85
2023-05-15T21:39:32.360Z,7.88
2023-05-15T21:41:58.891Z,7.83
2023-05-15T21:44:25.477Z,7.79
2023-05-15T21:46:52.195Z,7.75
2023-05-15T21:49:18.894Z,7.65
2023-05-15T21:51:45.395Z,7.62
2023-05-15T21:54:11.861Z,7.57
2023-05-15T21:56:38.375Z,7.49
2023-05-15T21:59:04.965Z,7.48
2023-05-15T22:01:31.568Z,7.45
2023-05-15T22:03:58.257Z,7.38
2023-05-15T22:06:25.054Z,7.29
2023-05-15T22:08:51.586Z,7.31
2023-05-15T22:11:18.066Z,7.22
2023-05-15T22:13:44.702Z,7.21
2023-05-15T22:16:11.444Z,7.13
2023-05-15T22:18:38.132Z,7.28
2023-05-15T22:21:04.659Z,7.30
2023-05-15T22:23:32.203Z,7.29
2023-05-15T22:25:58.770Z,7.23
2023-05-15T22:28:25.338Z,7.18
2023-05-15T22:30:52.104Z,7.16
2023-05-15T22:33:18.737Z,7.15
2023-05-15T22:35:45.196Z,7.19
2023-05-15T22:38:12.268Z,7.17
2023-05-15T22:40:38.940Z,7.17
2023-05-15T22:43:05.403Z,7.07
2023-05-15T22:45:32.016Z,7.00
2023-05-15T22:47:58.656Z,6.97
2023-05-15T22:50:25.909Z,6.95
2023-05-15T22:52:52.648Z,6.92
2023-05-15T22:55:19.191Z,6.95
2023-05-15T22:57:45.790Z,6.99
2023-05-15T23:00:13.124Z,6.95
2023-05-15T23:02:42.608Z,7.02
2023-05-15T23:05:10.867Z,7.02
2023-05-15T23:07:37.342Z,7.03
2023-05-15T23:10:04.078Z,6.97
2023-05-15T23:12:30.913Z,6.97
2023-05-15T23:14:57.468Z,6.96
2023-05-15T23:17:25.096Z,6.87
2023-05-15T23:19:52.944Z,6.79
2023-05-15T23:22:19.617Z,6.70
2023-05-15T23:24:46.134Z,6.62
2023-05-15T23:27:13.032Z,6.62
2023-05-15T23:29:39.599Z,6.60
2023-05-15T23:32:06.663Z,6.55
2023-05-15T23:34:33.127Z,6.50
2023-05-15T23:36:59.629Z,6.46
2023-05-15T23:39:26.323Z,6.46
2023-05-15T23:41:52.898Z,6.48
2023-05-15T23:44:19.565Z,6.43
2023-05-15T23:46:46.110Z,6.37
2023-05-15T23:49:12.833Z,6.35
2023-05-15T23:51:39.735Z,6.33
2023-05-15T23:54:06.418Z,6.24
2023-05-15T23:56:32.932Z,6.11
2023-05-15T23:58:59.472Z,6.03
